Time,TemperatureF,DewpointF,PressureIn,WindDirection,WindDirectionDegrees,WindSpeedMPH,WindSpeedGustMPH,Humidity,HourlyPrecipIn,Conditions,Clouds,dailyrainin,SoftwareType,DateUTC
2013-02-06 00:02:00,39.0,32.0,29.95,SE,135,1.0,2.0,77,0.00,,,0.00,,2013-02-06 05:02:00,
2013-02-06 00:12:00,39.0,32.0,29.95,SE,135,1.0,2.0,77,0.00,,,0.00,,2013-02-06 05:12:00,
2013-02-06 00:22:00,39.0,33.0,29.96,SE,135,2.0,4.0,78,0.00,,,0.00,,2013-02-06 05:22:00,
2013-02-06 00:32:00,38.0,32.0,29.96,SE,130,2.0,4.0,78,0.00,,,0.00,,2013-02-06 05:32:00,
2013-02-06 00:42:00,38.0,32.0,29.96,SE,130,2.0,4.0,78,0.00,,,0.00,,2013-02-06 05:42:00,
2013-02-06 00:53:00,38.0,32.0,29.96,SE,130,2.0,5.0,79,0.00,,,0.00,,2013-02-06 05:53:00,
2013-02-06 01:01:00,38.0,32.0,29.96,SE,130,2.0,5.0,79,0.00,,,0.00,,2013-02-06 06:01:00,
2013-02-06 01:11:00,38.0,32.0,29.96,SE,130,2.0,5.0,79,0.00,,,0.00,,2013-02-06 06:11:00,
2013-02-06 01:22:00,40.0,34.0,29.95,SE,131,3.0,5.0,78,0.00,,,0.00,,2013-02-06 06:22:00,
2013-02-06 01:32:00,40.0,33.0,29.96,SE,131,0.0,2.0,77,0.00,,,0.00,,2013-02-06 06:32:00,
2013-02-06 01:42:00,40.0,33.0,29.96,SE,131,0.0,2.0,77,0.00,,,0.00,,2013-02-06 06:42:00,
2013-02-06 01:52:00,38.0,32.0,29.97,SE,131,0.0,2.0,78,0.00,,,0.00,,2013-02-06 06:52:00,
2013-02-06 02:01:00,38.0,32.0,29.96,SE,131,0.0,4.0,80,0.00,,,0.00,,2013-02-06 07:01:00,
2013-02-06 02:11:00,38.0,32.0,29.96,SE,131,0.0,4.0,80,0.00,,,0.00,,2013-02-06 07:11:00,
2013-02-06 02:22:00,38.0,32.0,29.97,SE,131,1.0,2.0,79,0.00,,,0.00,,2013-02-06 07:22:00,
2013-02-06 02:32:00,37.0,31.0,29.97,SE,131,0.0,2.0,78,0.00,,,0.00,,2013-02-06 07:32:00,
2013-02-06 02:42:00,37.0,31.0,29.97,SE,131,0.0,2.0,78,0.00,,,0.00,,2013-02-06 07:42:00,
2013-02-06 02:52:00,36.0,31.0,29.98,SE,128,0.0,2.0,81,0.00,,,0.00,,2013-02-06 07:52:00,
2013-02-06 03:01:00,37.0,32.0,29.98,SE,128,1.0,2.0,82,0.00,,,0.00,,2013-02-06 08:01:00,
2013-02-06 03:11:00,37.0,32.0,29.98,SE,128,1.0,2.0,82,0.00,,,0.00,,2013-02-06 08:11:00,
2013-02-06 03:21:00,37.0,32.0,29.98,SE,128,0.0,1.0,81,0.00,,,0.00,,2013-02-06 08:21:00,
2013-02-06 03:31:00,37.0,32.0,29.98,SE,128,0.0,1.0,83,0.00,,,0.00,,2013-02-06 08:31:00,
2013-02-06 03:42:00,37.0,32.0,29.98,SE,128,0.0,1.0,83,0.00,,,0.00,,2013-02-06 08:42:00,
2013-02-06 03:53:00,37.0,32.0,29.98,SE,132,1.0,4.0,81,0.00,,,0.00,,2013-02-06 08:53:00,
2013-02-06 04:02:00,39.0,32.0,29.98,WNW,283,2.0,6.0,77,0.00,,,0.00,,2013-02-06 09:02:00,
2013-02-06 04:11:00,39.0,32.0,29.98,WNW,283,2.0,6.0,77,0.00,,,0.00,,2013-02-06 09:11:00,
2013-02-06 04:22:00,42.0,33.0,29.98,NW,321,5.0,11.0,70,0.00,,,0.00,,2013-02-06 09:22:00,
2013-02-06 04:32:00,44.0,32.0,29.98,WSW,254,4.0,12.0,63,0.00,,,0.00,,2013-02-06 09:32:00,
2013-02-06 04:42:00,44.0,32.0,29.98,WSW,254,4.0,12.0,63,0.00,,,0.00,,2013-02-06 09:42:00,
2013-02-06 04:52:00,45.0,32.0,29.99,WNW,283,4.0,10.0,61,0.00,,,0.00,,2013-02-06 09:52:00,
2013-02-06 05:01:00,45.0,31.0,30.00,SSE,155,6.0,19.0,58,0.00,,,0.00,,2013-02-06 10:01:00,
2013-02-06 05:11:00,45.0,31.0,30.00,SSE,155,6.0,19.0,58,0.00,,,0.00,,2013-02-06 10:11:00,
2013-02-06 05:22:00,45.0,30.0,30.01,West,279,5.0,12.0,56,0.00,,,0.00,,2013-02-06 10:22:00,
2013-02-06 05:32:00,46.0,31.0,30.02,WSW,255,2.0,7.0,55,0.00,,,0.00,,2013-02-06 10:32:00,
2013-02-06 05:42:00,46.0,31.0,30.02,WSW,255,2.0,7.0,55,0.00,,,0.00,,2013-02-06 10:42:00,
2013-02-06 05:52:00,45.0,30.0,30.03,WNW,286,1.0,6.0,56,0.00,,,0.00,,2013-02-06 10:52:00,
2013-02-06 06:01:00,45.0,31.0,30.04,WSW,247,1.0,6.0,57,0.00,,,0.00,,2013-02-06 11:01:00,
2013-02-06 06:11:00,45.0,31.0,30.04,WSW,247,1.0,6.0,57,0.00,,,0.00,,2013-02-06 11:11:00,
2013-02-06 06:22:00,45.0,31.0,30.06,North,355,2.0,8.0,57,0.00,,,0.00,,2013-02-06 11:22:00,
2013-02-06 06:32:00,44.0,29.0,30.06,NE,46,5.0,12.0,56,0.00,,,0.00,,2013-02-06 11:32:00,
2013-02-06 06:42:00,44.0,29.0,30.06,NE,46,5.0,12.0,56,0.00,,,0.00,,2013-02-06 11:42:00,
2013-02-06 06:53:00,44.0,29.0,30.08,North,349,5.0,12.0,56,0.00,,,0.00,,2013-02-06 11:53:00,
2013-02-06 07:02:00,44.0,29.0,30.09,NW,319,5.0,13.0,55,0.00,,,0.00,,2013-02-06 12:02:00,
2013-02-06 07:12:00,44.0,29.0,30.09,NW,319,5.0,13.0,55,0.00,,,0.00,,2013-02-06 12:12:00,
2013-02-06 07:22:00,43.0,28.0,30.10,SSW,211,3.0,10.0,55,0.00,,,0.00,,2013-02-06 12:22:00,
2013-02-06 07:32:00,43.0,28.0,30.11,NNE,22,3.0,8.0,55,0.00,,,0.00,,2013-02-06 12:32:00,
2013-02-06 07:42:00,43.0,28.0,30.11,NNE,22,3.0,8.0,55,0.00,,,0.00,,2013-02-06 12:42:00,
2013-02-06 07:52:00,43.0,28.0,30.12,WNW,294,3.0,9.0,56,0.00,,,0.00,,2013-02-06 12:52:00,
2013-02-06 08:01:00,43.0,28.0,30.12,WSW,252,4.0,12.0,55,0.00,,,0.00,,2013-02-06 13:01:00,
2013-02-06 08:12:00,43.0,28.0,30.12,WSW,252,4.0,12.0,55,0.00,,,0.00,,2013-02-06 13:12:00,
2013-02-06 08:22:00,43.0,27.0,30.13,NW,307,2.0,7.0,53,0.00,,,0.00,,2013-02-06 13:22:00,
2013-02-06 08:32:00,44.0,28.0,30.14,NNE,19,2.0,9.0,52,0.00,,,0.00,,2013-02-06 13:32:00,
2013-02-06 08:42:00,44.0,28.0,30.14,NNE,19,2.0,9.0,52,0.00,,,0.00,,2013-02-06 13:42:00,
2013-02-06 08:52:00,45.0,28.0,30.14,NW,321,3.0,9.0,52,0.00,,,0.00,,2013-02-06 13:52:00,
2013-02-06 09:02:00,45.0,28.0,30.16,WNW,285,2.0,7.0,51,0.00,,,0.00,,2013-02-06 14:02:00,
2013-02-06 09:11:00,45.0,28.0,30.16,WNW,285,2.0,7.0,51,0.00,,,0.00,,2013-02-06 14:11:00,
2013-02-06 09:22:00,47.0,29.0,30.16,North,10,2.0,9.0,49,0.00,,,0.00,,2013-02-06 14:22:00,
2013-02-06 09:32:00,47.0,28.0,30.16,North,360,2.0,10.0,48,0.00,,,0.00,,2013-02-06 14:32:00,
2013-02-06 09:42:00,47.0,28.0,30.16,North,360,2.0,10.0,48,0.00,,,0.00,,2013-02-06 14:42:00,
2013-02-06 09:52:00,45.0,28.0,30.16,North,355,2.0,8.0,51,0.00,,,0.00,,2013-02-06 14:52:00,
2013-02-06 10:02:00,47.0,29.0,30.17,WNW,282,2.0,6.0,49,0.00,,,0.00,,2013-02-06 15:02:00,
2013-02-06 10:11:00,47.0,29.0,30.17,WNW,282,2.0,6.0,49,0.00,,,0.00,,2013-02-06 15:11:00,
2013-02-06 10:21:00,49.0,29.0,30.17,NW,305,2.0,5.0,46,0.00,,,0.00,,2013-02-06 15:21:00,
2013-02-06 10:32:00,49.0,29.0,30.18,NNW,333,4.0,10.0,45,0.00,,,0.00,,2013-02-06 15:32:00,
2013-02-06 10:42:00,49.0,29.0,30.18,NNW,333,4.0,10.0,45,0.00,,,0.00,,2013-02-06 15:42:00,
2013-02-06 10:52:00,50.0,29.0,30.19,SSE,159,2.0,5.0,44,0.00,,,0.00,,2013-02-06 15:52:00,
2013-02-06 11:01:00,49.0,27.0,30.19,West,278,2.0,8.0,43,0.00,,,0.00,,2013-02-06 16:01:00,
2013-02-06 11:11:00,49.0,27.0,30.19,West,278,2.0,8.0,43,0.00,,,0.00,,2013-02-06 16:11:00,
2013-02-06 11:21:00,49.0,27.0,30.20,WSW,248,1.0,8.0,43,0.00,,,0.00,,2013-02-06 16:21:00,
2013-02-06 11:32:00,47.0,27.0,30.20,WSW,252,1.0,6.0,45,0.00,,,0.00,,2013-02-06 16:32:00,
2013-02-06 11:42:00,47.0,27.0,30.20,WSW,252,1.0,6.0,45,0.00,,,0.00,,2013-02-06 16:42:00,
2013-02-06 11:52:00,49.0,28.0,30.20,NW,326,2.0,9.0,44,0.00,,,0.00,,2013-02-06 16:52:00,
2013-02-06 12:02:00,51.0,28.0,30.19,East,96,3.0,7.0,40,0.00,,,0.00,,2013-02-06 17:02:00,
2013-02-06 12:12:00,51.0,28.0,30.19,East,96,3.0,7.0,40,0.00,,,0.00,,2013-02-06 17:12:00,
2013-02-06 12:22:00,52.0,27.0,30.19,WSW,238,3.0,10.0,38,0.00,,,0.00,,2013-02-06 17:22:00,
2013-02-06 12:32:00,50.0,26.0,30.19,West,271,3.0,11.0,39,0.00,,,0.00,,2013-02-06 17:32:00,
2013-02-06 12:42:00,50.0,26.0,30.19,West,271,3.0,11.0,39,0.00,,,0.00,,2013-02-06 17:42:00,
2013-02-06 12:52:00,51.0,26.0,30.18,SW,226,4.0,9.0,38,0.00,,,0.00,,2013-02-06 17:52:00,
2013-02-06 13:01:00,51.0,27.0,30.18,NNE,19,4.0,9.0,39,0.00,,,0.00,,2013-02-06 18:01:00,
2013-02-06 13:11:00,51.0,26.0,30.18,East,84,2.0,9.0,38,0.00,,,0.00,,2013-02-06 18:11:00,
2013-02-06 13:23:00,51.0,26.0,30.18,East,84,2.0,9.0,38,0.00,,,0.00,,2013-02-06 18:23:00,
2013-02-06 13:32:00,52.0,27.0,30.18,NNW,338,6.0,14.0,38,0.00,,,0.00,,2013-02-06 18:32:00,
2013-02-06 13:42:00,52.0,27.0,30.18,NNW,338,6.0,14.0,38,0.00,,,0.00,,2013-02-06 18:42:00,
2013-02-06 13:52:00,52.0,27.0,30.18,SW,230,1.0,8.0,37,0.00,,,0.00,,2013-02-06 18:52:00,
2013-02-06 14:02:00,53.0,27.0,30.16,SW,217,2.0,5.0,36,0.00,,,0.00,,2013-02-06 19:02:00,
2013-02-06 14:11:00,53.0,27.0,30.16,SW,217,2.0,5.0,36,0.00,,,0.00,,2013-02-06 19:11:00,
2013-02-06 14:22:00,53.0,27.0,30.17,West,260,1.0,5.0,36,0.00,,,0.00,,2013-02-06 19:22:00,
2013-02-06 14:32:00,53.0,26.0,30.16,West,279,3.0,8.0,35,0.00,,,0.00,,2013-02-06 19:32:00,
2013-02-06 14:42:00,53.0,26.0,30.16,West,279,3.0,8.0,35,0.00,,,0.00,,2013-02-06 19:42:00,
2013-02-06 14:52:00,53.0,26.0,30.16,West,261,4.0,7.0,35,0.00,,,0.00,,2013-02-06 19:52:00,
2013-02-06 15:01:00,54.0,27.0,30.16,NW,311,0.0,6.0,35,0.00,,,0.00,,2013-02-06 20:01:00,
2013-02-06 15:11:00,53.0,25.0,30.16,SSE,153,5.0,6.0,34,0.00,,,0.00,,2013-02-06 20:11:00,
2013-02-06 15:21:00,53.0,25.0,30.16,SSE,153,5.0,6.0,34,0.00,,,0.00,,2013-02-06 20:21:00,
2013-02-06 15:32:00,52.0,25.0,30.16,ESE,121,2.0,4.0,35,0.00,,,0.00,,2013-02-06 20:32:00,
2013-02-06 15:42:00,52.0,25.0,30.16,ESE,121,2.0,4.0,35,0.00,,,0.00,,2013-02-06 20:42:00,
2013-02-06 15:52:00,54.0,26.0,30.16,ESE,119,1.0,4.0,34,0.00,,,0.00,,2013-02-06 20:52:00,
2013-02-06 16:02:00,54.0,26.0,30.17,SSW,212,2.0,6.0,34,0.00,,,0.00,,2013-02-06 21:02:00,
2013-02-06 16:11:00,54.0,26.0,30.17,SSW,212,2.0,6.0,34,0.00,,,0.00,,2013-02-06 21:11:00,
2013-02-06 16:21:00,54.0,26.0,30.17,SW,223,2.0,6.0,34,0.00,,,0.00,,2013-02-06 21:21:00,
2013-02-06 16:32:00,54.0,26.0,30.17,NNW,342,2.0,7.0,34,0.00,,,0.00,,2013-02-06 21:32:00,
2013-02-06 16:42:00,54.0,26.0,30.17,NNW,342,2.0,7.0,34,0.00,,,0.00,,2013-02-06 21:42:00,
2013-02-06 16:52:00,54.0,26.0,30.18,West,267,1.0,4.0,34,0.00,,,0.00,,2013-02-06 21:52:00,
2013-02-06 17:01:00,54.0,26.0,30.17,NNE,16,2.0,4.0,34,0.00,,,0.00,,2013-02-06 22:01:00,
2013-02-06 17:11:00,54.0,26.0,30.17,NNE,16,2.0,4.0,34,0.00,,,0.00,,2013-02-06 22:11:00,
2013-02-06 17:22:00,53.0,26.0,30.18,NE,37,1.0,5.0,35,0.00,,,0.00,,2013-02-06 22:22:00,
2013-02-06 17:32:00,53.0,26.0,30.18,NNW,327,1.0,4.0,35,0.00,,,0.00,,2013-02-06 22:32:00,
2013-02-06 17:42:00,53.0,26.0,30.18,NNW,327,1.0,4.0,35,0.00,,,0.00,,2013-02-06 22:42:00,
2013-02-06 17:52:00,52.0,25.0,30.19,NNE,26,1.0,3.0,35,0.00,,,0.00,,2013-02-06 22:52:00,
2013-02-06 18:01:00,52.0,26.0,30.19,NW,320,3.0,6.0,36,0.00,,,0.00,,2013-02-06 23:01:00,
2013-02-06 18:11:00,52.0,26.0,30.19,NW,320,3.0,6.0,36,0.00,,,0.00,,2013-02-06 23:11:00,
2013-02-06 18:21:00,51.0,26.0,30.20,NNE,30,0.0,4.0,37,0.00,,,0.00,,2013-02-06 23:21:00,
2013-02-06 18:32:00,51.0,26.0,30.20,ENE,69,2.0,3.0,38,0.00,,,0.00,,2013-02-06 23:32:00,
2013-02-06 18:42:00,51.0,26.0,30.20,ENE,69,2.0,3.0,38,0.00,,,0.00,,2013-02-06 23:42:00,
2013-02-06 18:52:00,50.0,25.0,30.21,East,91,1.0,5.0,38,0.00,,,0.00,,2013-02-06 23:52:00,
2013-02-06 19:02:00,50.0,26.0,30.22,East,86,2.0,4.0,39,0.00,,,0.00,,2013-02-07 00:02:00,
2013-02-06 19:11:00,50.0,26.0,30.22,East,86,2.0,4.0,39,0.00,,,0.00,,2013-02-07 00:11:00,
2013-02-06 19:22:00,49.0,26.0,30.22,North,10,2.0,5.0,40,0.00,,,0.00,,2013-02-07 00:22:00,
2013-02-06 19:32:00,48.0,26.0,30.23,NNE,30,2.0,4.0,42,0.00,,,0.00,,2013-02-07 00:32:00,
2013-02-06 19:42:00,48.0,26.0,30.23,NNE,30,2.0,4.0,42,0.00,,,0.00,,2013-02-07 00:42:00,
2013-02-06 19:52:00,47.0,26.0,30.23,NNW,339,2.0,4.0,44,0.00,,,0.00,,2013-02-07 00:52:00,
2013-02-06 20:01:00,46.0,26.0,30.24,North,360,0.0,4.0,45,0.00,,,0.00,,2013-02-07 01:01:00,
2013-02-06 20:11:00,46.0,26.0,30.24,North,360,0.0,4.0,45,0.00,,,0.00,,2013-02-07 01:11:00,
2013-02-06 20:21:00,45.0,26.0,30.24,NNE,17,1.0,4.0,47,0.00,,,0.00,,2013-02-07 01:21:00,
2013-02-06 20:32:00,45.0,26.0,30.25,NW,317,1.0,3.0,47,0.00,,,0.00,,2013-02-07 01:32:00,
2013-02-06 20:42:00,45.0,26.0,30.25,NW,317,1.0,3.0,47,0.00,,,0.00,,2013-02-07 01:42:00,
2013-02-06 20:52:00,45.0,27.0,30.26,West,259,0.0,2.0,48,0.00,,,0.00,,2013-02-07 01:52:00,
2013-02-06 21:01:00,45.0,27.0,30.25,WSW,257,0.0,3.0,49,0.00,,,0.00,,2013-02-07 02:01:00,
2013-02-06 21:11:00,45.0,27.0,30.25,WSW,257,0.0,3.0,49,0.00,,,0.00,,2013-02-07 02:11:00,
2013-02-06 21:21:00,43.0,27.0,30.24,WSW,257,0.0,3.0,52,0.00,,,0.00,,2013-02-07 02:21:00,
2013-02-06 21:32:00,42.0,27.0,30.25,SSE,159,3.0,5.0,54,0.00,,,0.00,,2013-02-07 02:32:00,
2013-02-06 21:42:00,42.0,27.0,30.25,SSE,159,3.0,5.0,54,0.00,,,0.00,,2013-02-07 02:42:00,
2013-02-06 21:52:00,42.0,27.0,30.25,SSE,159,3.0,5.0,54,0.00,,,0.00,,2013-02-07 02:52:00,
2013-02-06 22:02:00,41.0,27.0,30.25,SE,138,1.0,2.0,58,0.00,,,0.00,,2013-02-07 03:02:00,
2013-02-06 22:11:00,41.0,27.0,30.25,SE,138,1.0,2.0,58,0.00,,,0.00,,2013-02-07 03:11:00,
2013-02-06 22:21:00,40.0,27.0,30.25,ESE,119,0.0,1.0,60,0.00,,,0.00,,2013-02-07 03:21:00,
2013-02-06 22:32:00,39.0,27.0,30.25,ESE,119,0.0,2.0,62,0.00,,,0.00,,2013-02-07 03:32:00,
2013-02-06 22:42:00,39.0,27.0,30.25,ESE,119,0.0,2.0,62,0.00,,,0.00,,2013-02-07 03:42:00,
2013-02-06 22:52:00,39.0,27.0,30.25,ESE,119,0.0,2.0,63,0.00,,,0.00,,2013-02-07 03:52:00,
2013-02-06 23:01:00,38.0,27.0,30.25,ESE,118,0.0,1.0,64,0.00,,,0.00,,2013-02-07 04:01:00,
2013-02-06 23:11:00,38.0,27.0,30.25,ESE,118,0.0,1.0,64,0.00,,,0.00,,2013-02-07 04:11:00,
2013-02-06 23:22:00,38.0,28.0,30.26,NE,40,1.0,3.0,66,0.00,,,0.00,,2013-02-07 04:22:00,
2013-02-06 23:32:00,38.0,27.0,30.27,WSW,254,0.0,3.0,65,0.00,,,0.00,,2013-02-07 04:32:00,
2013-02-06 23:42:00,38.0,27.0,30.27,WSW,254,0.0,3.0,65,0.00,,,0.00,,2013-02-07 04:42:00,
2013-02-06 23:53:00,37.0,27.0,30.29,SW,236,1.0,4.0,66,0.00,,,0.00,,2013-02-07 04:53:00,